Terminal Aerodrome Forecast
Issued by NWS

Home | Current Version | Previous Version | Text Only | Print | Product List | Glossary On
Versions: 1 2 3 4 5 6 7 8 9 10 11 12 13 14 15 16 17 18 19 20 21 22 23 24
464
FTUS44 KSJT 212331
TAFSOA
TAF
KSOA 212331Z 2200/2224 20008KT P6SM SCT040
     FM220800 34012KT P6SM VCSH SCT040 BKN100
     FM221000 34012KT P6SM SCT250
     FM221800 02012KT P6SM SKC=

USA.gov is the U.S. government's official web portal to all federal, state and local government web resources and services.